Time;durP1;ratioP1;P1;durP2;ratioP2;P2;SDS_P1;SDS_P2;PMS_P1;PMS_P2;Temp;Humidity;BMP_temperature;BMP_pressure;BME280_temperature;BME280_humidity;BME280_pressure;Samples;Min_cycle;Max_cycle;Signal;HPM_P1;HPM_P2
2024/01/15 00:01:11;;;;;;;61.85;34.95;;;;;;;0.14;100.00;100369.31;5088291;28;20084;-79
2024/01/15 00:03:37;;;;;;;58.60;34.05;;;;;;;0.16;100.00;100365.78;5078101;28;20192;-79
2024/01/15 00:06:02;;;;;;;59.88;33.78;;;;;;;0.15;100.00;100358.06;5088810;28;20032;-79
2024/01/15 00:08:27;;;;;;;57.63;33.45;;;;;;;0.15;100.00;100363.25;5097241;28;20011;-79
2024/01/15 00:10:53;;;;;;;57.97;32.90;;;;;;;0.16;100.00;100357.19;5106456;28;20048;-79
2024/01/15 00:13:18;;;;;;;55.80;32.50;;;;;;;0.13;100.00;100345.19;5105201;28;20080;-79
2024/01/15 00:15:43;;;;;;;52.47;30.00;;;;;;;0.12;100.00;100350.44;5090815;28;20019;-79
2024/01/15 00:18:09;;;;;;;51.70;30.80;;;;;;;0.13;100.00;100341.78;5108573;28;20016;-79
2024/01/15 00:20:34;;;;;;;50.45;29.73;;;;;;;0.12;100.00;100340.09;5109414;28;20026;-79
2024/01/15 00:23:00;;;;;;;49.28;28.20;;;;;;;0.09;100.00;100345.38;5108505;28;20410;-79
2024/01/15 00:25:25;;;;;;;46.15;27.73;;;;;;;0.10;100.00;100337.56;5090945;28;20023;-79
2024/01/15 00:27:50;;;;;;;45.58;26.15;;;;;;;0.09;100.00;100337.63;5106637;28;20041;-78
2024/01/15 00:30:16;;;;;;;46.53;26.08;;;;;;;0.08;100.00;100333.34;5096273;28;20020;-83
2024/01/15 00:32:41;;;;;;;47.45;24.80;;;;;;;0.07;100.00;100344.59;5090285;28;20030;-79
2024/01/15 00:35:07;;;;;;;39.25;23.80;;;;;;;0.09;100.00;100330.72;5095277;28;20569;-79
2024/01/15 00:37:32;;;;;;;37.03;21.88;;;;;;;0.06;100.00;100325.66;5108443;28;20120;-82
2024/01/15 00:39:57;;;;;;;36.40;20.52;;;;;;;0.07;100.00;100322.16;5108618;28;20027;-79
2024/01/15 00:42:23;;;;;;;31.33;18.60;;;;;;;0.09;100.00;100316.94;5103364;28;20055;-83
2024/01/15 00:44:48;;;;;;;28.55;16.00;;;;;;;0.09;100.00;100314.34;5091305;28;20028;-78
2024/01/15 00:47:13;;;;;;;29.02;13.52;;;;;;;0.09;100.00;100314.34;5070419;28;20022;-78
2024/01/15 00:49:39;;;;;;;21.25;11.18;;;;;;;0.11;100.00;100307.38;5088397;28;20041;-83
2024/01/15 00:52:04;;;;;;;14.07;8.45;;;;;;;0.10;100.00;100308.28;5108885;28;20495;-82
2024/01/15 00:54:30;;;;;;;12.80;6.28;;;;;;;0.09;100.00;100298.84;5109518;28;20027;-82
2024/01/15 00:56:55;;;;;;;14.25;6.35;;;;;;;0.10;100.00;100306.53;5095293;28;20082;-82
2024/01/15 00:59:20;;;;;;;10.82;5.03;;;;;;;0.10;100.00;100305.69;5089376;28;20092;-82
2024/01/15 01:01:46;;;;;;;8.90;3.90;;;;;;;0.12;100.00;100298.72;5077765;28;20399;-82
2024/01/15 01:04:12;;;;;;;12.82;3.88;;;;;;;0.13;100.00;100302.97;5070789;28;20039;-82
2024/01/15 01:06:38;;;;;;;5.70;2.33;;;;;;;0.14;100.00;100297.75;5077585;28;20034;-82
2024/01/15 01:09:03;;;;;;;9.75;2.80;;;;;;;0.13;100.00;100290.88;5103002;28;20481;-82
2024/01/15 01:11:31;;;;;;;8.13;2.15;;;;;;;0.14;100.00;100291.72;5108565;28;20092;-82
2024/01/15 01:13:57;;;;;;;7.22;2.40;;;;;;;0.14;100.00;100297.75;5083121;28;20430;-82
2024/01/15 01:16:22;;;;;;;10.10;2.42;;;;;;;0.13;100.00;100290.06;5103294;28;20034;-83
2024/01/15 01:18:48;;;;;;;4.82;2.10;;;;;;;0.14;100.00;100277.06;5094497;28;20384;-82
2024/01/15 01:21:13;;;;;;;5.18;2.00;;;;;;;0.13;100.00;100285.72;5068532;28;20353;-78
2024/01/15 01:23:38;;;;;;;6.95;2.20;;;;;;;0.15;100.00;100275.31;5089602;28;20640;-78
2024/01/15 01:26:04;;;;;;;6.30;2.30;;;;;;;0.15;100.00;100283.91;5069331;28;20536;-82
2024/01/15 01:28:29;;;;;;;5.72;1.95;;;;;;;0.14;100.00;100286.56;5087618;28;20027;-81
2024/01/15 01:30:55;;;;;;;7.38;2.30;;;;;;;0.13;100.00;100275.38;5087275;28;20016;-82
2024/01/15 01:33:20;;;;;;;4.97;2.20;;;;;;;0.12;100.00;100288.38;5086930;28;20032;-81
2024/01/15 01:35:46;;;;;;;5.88;2.08;;;;;;;0.12;100.00;100290.94;5093732;28;20024;-81
2024/01/15 01:38:12;;;;;;;7.53;2.10;;;;;;;0.13;100.00;100287.47;5096706;28;20051;-82
2024/01/15 01:40:37;;;;;;;7.15;2.30;;;;;;;0.13;100.00;100279.69;5109263;28;20054;-82
2024/01/15 01:43:04;;;;;;;6.55;2.50;;;;;;;0.12;100.00;100285.78;5093157;28;20028;-81
2024/01/15 01:45:30;;;;;;;6.18;2.40;;;;;;;0.14;100.00;100291.72;5112359;28;20015;-82
2024/01/15 01:47:55;;;;;;;12.45;3.22;;;;;;;0.13;100.00;100288.31;5109209;28;20563;-81
2024/01/15 01:50:21;;;;;;;9.80;2.75;;;;;;;0.13;100.00;100282.28;5112187;28;20095;-81
2024/01/15 01:52:46;;;;;;;6.70;2.70;;;;;;;0.13;100.00;100287.47;5107632;28;20031;-81
2024/01/15 01:55:12;;;;;;;9.73;2.90;;;;;;;0.08;100.00;100287.66;5101779;28;20511;-81
2024/01/15 01:57:38;;;;;;;8.25;2.92;;;;;;;0.07;100.00;100295.47;5093682;28;20028;-81
2024/01/15 02:00:05;;;;;;;7.32;2.50;;;;;;;0.07;100.00;100285.13;5095143;28;20387;-78
2024/01/15 02:02:32;;;;;;;6.50;2.25;;;;;;;0.05;100.00;100286.94;5091312;28;20031;-78
2024/01/15 02:04:57;;;;;;;8.13;2.60;;;;;;;0.02;100.00;100284.47;5092884;28;20031;-78
2024/01/15 02:07:22;;;;;;;8.40;2.83;;;;;;;0.02;100.00;100281.88;5110642;28;20027;-78
2024/01/15 02:09:49;;;;;;;8.18;2.40;;;;;;;-0.01;100.00;100288.00;5111663;28;20027;-78
2024/01/15 02:12:14;;;;;;;6.65;2.20;;;;;;;0.00;100.00;100281.94;5109793;28;20100;-78
2024/01/15 02:14:40;;;;;;;6.68;2.10;;;;;;;-0.03;100.00;100295.81;5111050;28;20099;-78
2024/01/15 02:17:06;;;;;;;8.18;2.05;;;;;;;-0.05;100.00;100287.28;5112079;28;20031;-78
2024/01/15 02:19:31;;;;;;;8.90;2.00;;;;;;;-0.06;100.00;100285.59;5096152;28;20472;-78
2024/01/15 02:21:56;;;;;;;7.68;2.45;;;;;;;-0.06;100.00;100295.09;5092249;28;20426;-79
2024/01/15 02:24:22;;;;;;;7.40;2.22;;;;;;;-0.06;100.00;100289.91;5073729;28;20117;-78
2024/01/15 02:26:48;;;;;;;10.80;2.10;;;;;;;-0.08;100.00;100282.22;5101976;28;20068;-79
2024/01/15 02:29:15;;;;;;;7.57;2.10;;;;;;;-0.11;100.00;100281.50;5109857;28;20028;-79
2024/01/15 02:31:40;;;;;;;7.88;2.10;;;;;;;-0.13;100.00;100273.81;5112083;28;20016;-78
2024/01/15 02:34:06;;;;;;;7.40;2.03;;;;;;;-0.17;100.00;100282.59;5111375;28;20030;-79
2024/01/15 02:36:31;;;;;;;7.05;2.03;;;;;;;-0.17;100.00;100287.75;5088635;28;20034;-82
2024/01/15 02:38:57;;;;;;;11.48;2.15;;;;;;;-0.19;100.00;100281.81;5109105;28;20045;-82
2024/01/15 02:41:22;;;;;;;7.60;1.90;;;;;;;-0.18;100.00;100280.91;5078323;28;20074;-81
2024/01/15 02:43:50;;;;;;;5.78;1.80;;;;;;;-0.21;100.00;100275.84;5090506;28;20042;-81
2024/01/15 02:46:16;;;;;;;8.73;2.17;;;;;;;-0.21;100.00;100273.28;5097035;28;20085;-81
2024/01/15 02:48:41;;;;;;;10.60;1.98;;;;;;;-0.25;100.00;100274.28;5093948;28;20028;-81
2024/01/15 02:51:07;;;;;;;7.35;1.77;;;;;;;-0.25;100.00;100273.47;5070745;28;20516;-81
2024/01/15 02:53:32;;;;;;;8.07;1.70;;;;;;;-0.24;100.00;100275.97;5073146;28;20046;-82
2024/01/15 02:55:57;;;;;;;7.80;2.17;;;;;;;-0.26;100.00;100277.78;5090490;28;20012;-81
2024/01/15 02:58:23;;;;;;;6.93;1.70;;;;;;;-0.28;100.00;100279.59;5089675;28;20024;-81
2024/01/15 03:00:48;;;;;;;8.88;1.90;;;;;;;-0.26;100.00;100277.78;5072403;28;20131;-82
2024/01/15 03:03:16;;;;;;;8.73;2.00;;;;;;;-0.27;100.00;100281.28;5087551;28;20027;-81
2024/01/15 03:05:42;;;;;;;10.80;1.80;;;;;;;-0.23;100.00;100293.16;5090257;28;20051;-78
2024/01/15 03:08:07;;;;;;;9.90;1.85;;;;;;;-0.21;100.00;100298.28;5100693;28;20062;-81
2024/01/15 03:10:32;;;;;;;12.38;2.22;;;;;;;-0.18;100.00;100291.25;5095931;28;20513;-81
2024/01/15 03:12:58;;;;;;;10.88;2.22;;;;;;;-0.15;100.00;100292.88;5082322;28;20456;-81
2024/01/15 03:15:23;;;;;;;9.30;2.40;;;;;;;-0.15;100.00;100293.72;5090871;28;20378;-81
2024/01/15 03:17:49;;;;;;;10.52;2.15;;;;;;;-0.15;100.00;100291.13;5091423;28;20097;-81
2024/01/15 03:20:14;;;;;;;9.35;2.33;;;;;;;-0.14;100.00;100291.97;5082107;28;20024;-81
2024/01/15 03:22:40;;;;;;;9.65;1.90;;;;;;;-0.15;100.00;100293.72;5074907;28;20032;-81
2024/01/15 03:25:06;;;;;;;10.77;2.15;;;;;;;-0.16;100.00;100289.44;5071164;28;20131;-82
2024/01/15 03:27:31;;;;;;;9.50;2.30;;;;;;;-0.16;100.00;100281.69;5080071;28;20028;-82
2024/01/15 03:29:57;;;;;;;10.20;2.10;;;;;;;-0.15;100.00;100285.13;5087273;28;20050;-82
2024/01/15 03:32:22;;;;;;;10.02;2.30;;;;;;;-0.17;100.00;100277.41;5091297;28;20020;-82
2024/01/15 03:34:52;;;;;;;12.45;2.70;;;;;;;-0.18;100.00;100280.06;5090559;28;20036;-82
2024/01/15 03:37:17;;;;;;;9.88;2.15;;;;;;;-0.20;100.00;100287.03;5091350;28;20035;-82
2024/01/15 03:39:42;;;;;;;10.52;2.10;;;;;;;-0.18;100.00;100286.06;5086406;28;20020;-82
2024/01/15 03:42:08;;;;;;;11.75;2.50;;;;;;;-0.14;100.00;100279.03;5087047;28;20028;-82
2024/01/15 03:44:33;;;;;;;10.93;2.38;;;;;;;-0.14;100.00;100272.13;5069627;28;20776;-80
2024/01/15 03:46:59;;;;;;;11.48;2.55;;;;;;;-0.12;100.00;100270.31;5079635;28;20073;-79
2024/01/15 03:49:24;;;;;;;14.85;2.72;;;;;;;-0.09;100.00;100271.94;5086393;28;20044;-79
2024/01/15 03:51:49;;;;;;;12.73;2.65;;;;;;;-0.08;100.00;100271.88;5083261;28;20020;-82
2024/01/15 03:54:15;;;;;;;12.10;2.85;;;;;;;-0.06;100.00;100264.91;5088122;28;20027;-82
2024/01/15 03:56:40;;;;;;;12.95;2.90;;;;;;;-0.06;100.00;100269.22;5088358;28;20024;-82
2024/01/15 03:59:06;;;;;;;11.35;2.75;;;;;;;-0.04;100.00;100257.94;5088916;28;20028;-82
2024/01/15 04:01:31;;;;;;;10.32;2.20;;;;;;;-0.03;100.00;100254.44;5077637;28;20016;-82
2024/01/15 04:03:56;;;;;;;8.63;2.33;;;;;;;0.01;100.00;100249.16;5076262;28;20051;-82
2024/01/15 04:06:22;;;;;;;13.88;2.45;;;;;;;0.03;100.00;100247.38;5087834;28;20054;-82
2024/01/15 04:08:50;;;;;;;16.85;3.10;;;;;;;0.04;100.00;100249.88;5088356;28;20056;-82
2024/01/15 04:11:16;;;;;;;12.38;2.50;;;;;;;0.05;100.00;100245.56;5095283;28;20043;-81
2024/01/15 04:13:41;;;;;;;12.88;2.97;;;;;;;0.03;100.00;100243.03;5089171;28;20379;-81
2024/01/15 04:16:06;;;;;;;9.07;2.05;;;;;;;0.07;100.00;100243.75;5088161;28;20391;-81
2024/01/15 04:18:32;;;;;;;10.90;2.33;;;;;;;0.06;100.00;100236.91;5089304;28;20140;-81
2024/01/15 04:20:57;;;;;;;10.68;2.47;;;;;;;0.07;100.00;100238.56;5083110;28;20024;-81
2024/01/15 04:23:22;;;;;;;18.83;2.58;;;;;;;0.09;100.00;100239.34;5077042;28;20051;-81
2024/01/15 04:25:48;;;;;;;10.15;2.22;;;;;;;0.08;100.00;100241.09;5087424;28;20024;-81
2024/01/15 04:28:13;;;;;;;8.38;2.28;;;;;;;0.05;100.00;100228.28;5086846;28;20027;-82
2024/01/15 04:30:38;;;;;;;10.10;2.00;;;;;;;0.06;100.00;100229.97;5089840;28;20020;-81
2024/01/15 04:33:04;;;;;;;9.80;2.05;;;;;;;0.04;100.00;100233.53;5078056;28;20032;-81
2024/01/15 04:35:32;;;;;;;11.63;2.20;;;;;;;0.06;100.00;100234.31;5072613;28;20032;-81
2024/01/15 04:37:58;;;;;;;6.20;1.60;;;;;;;0.08;100.00;100241.09;5069200;28;20115;-79
2024/01/15 04:40:23;;;;;;;7.70;2.17;;;;;;;0.11;100.00;100240.13;5099070;28;20115;-81
2024/01/15 04:42:49;;;;;;;7.85;2.00;;;;;;;0.09;100.00;100231.59;5088858;28;20526;-81
2024/01/15 04:45:14;;;;;;;6.65;1.50;;;;;;;0.06;100.00;100232.56;5080979;28;20016;-81
2024/01/15 04:47:39;;;;;;;6.57;1.80;;;;;;;0.03;100.00;100237.03;5079136;28;20052;-82
2024/01/15 04:50:05;;;;;;;7.10;1.90;;;;;;;0.01;100.00;100228.50;5067253;28;20040;-82
2024/01/15 04:52:31;;;;;;;6.88;1.42;;;;;;;-0.05;100.00;100226.97;5085161;28;20032;-77
2024/01/15 04:54:56;;;;;;;5.68;1.58;;;;;;;-0.05;100.00;100220.03;5076318;28;20063;-82
2024/01/15 04:57:21;;;;;;;2.70;1.20;;;;;;;-0.08;100.00;100220.16;5086172;28;20089;-82
2024/01/15 04:59:49;;;;;;;2.92;1.00;;;;;;;-0.08;100.00;100225.34;5087352;28;20116;-77
2024/01/15 05:02:14;;;;;;;5.15;1.20;;;;;;;-0.14;100.00;100223.00;5071603;28;20519;-77
2024/01/15 05:04:40;;;;;;;3.88;1.25;;;;;;;-0.16;100.00;100221.38;5081707;28;20051;-77
2024/01/15 05:07:05;;;;;;;3.67;1.20;;;;;;;-0.15;100.00;100226.50;5086501;28;20468;-77
2024/01/15 05:09:30;;;;;;;1.80;0.90;;;;;;;-0.15;100.00;100223.91;5103899;28;20020;-77
2024/01/15 05:11:56;;;;;;;4.80;1.10;;;;;;;-0.16;100.00;100214.47;5107215;28;20054;-78
2024/01/15 05:14:21;;;;;;;3.55;1.10;;;;;;;-0.15;100.00;100211.00;5107860;28;20110;-78
2024/01/15 05:16:50;;;;;;;3.70;1.25;;;;;;;-0.16;100.00;100214.47;5108279;28;20028;-78
2024/01/15 05:19:16;;;;;;;5.13;1.50;;;;;;;-0.17;100.00;100215.38;5107312;28;20030;-78
2024/01/15 05:21:42;;;;;;;4.15;1.55;;;;;;;-0.19;100.00;100204.25;5094083;28;20063;-78
2024/01/15 05:24:08;;;;;;;4.47;1.50;;;;;;;-0.20;100.00;100201.75;5085692;28;20504;-78
2024/01/15 05:26:33;;;;;;;5.18;1.60;;;;;;;-0.20;100.00;100194.81;5087324;28;20024;-83
2024/01/15 05:28:59;;;;;;;4.75;1.92;;;;;;;-0.22;100.00;100196.63;5086405;28;20505;-83
2024/01/15 05:31:24;;;;;;;4.60;2.03;;;;;;;-0.21;100.00;100198.31;5088050;28;20016;-83
2024/01/15 05:33:50;;;;;;;7.07;2.03;;;;;;;-0.21;100.00;100198.31;5075686;28;20652;-83
2024/01/15 05:36:15;;;;;;;7.57;2.58;;;;;;;-0.21;100.00;100192.31;5067388;28;20074;-83
2024/01/15 05:38:40;;;;;;;7.80;2.50;;;;;;;-0.18;100.00;100189.59;5076132;28;20022;-84
2024/01/15 05:41:06;;;;;;;8.52;3.05;;;;;;;-0.18;100.00;100187.84;5083843;28;20029;-84
2024/01/15 05:43:31;;;;;;;11.13;2.63;;;;;;;-0.17;100.00;100189.53;5073302;28;20028;-84
2024/01/15 05:45:57;;;;;;;8.02;2.40;;;;;;;-0.15;100.00;100190.31;5068736;28;20039;-84
2024/01/15 05:48:22;;;;;;;7.22;2.45;;;;;;;-0.13;100.00;100190.25;5103224;28;20066;-84
2024/01/15 05:50:47;;;;;;;8.18;2.20;;;;;;;-0.13;100.00;100188.50;5089481;28;20591;-84
2024/01/15 05:53:13;;;;;;;7.00;2.17;;;;;;;-0.11;100.00;100183.25;5088754;28;20031;-84
2024/01/15 05:55:38;;;;;;;9.07;2.25;;;;;;;-0.15;100.00;100187.72;5088685;28;20066;-83
2024/01/15 05:58:04;;;;;;;9.38;2.42;;;;;;;-0.13;100.00;100185.91;5076059;28;20114;-83
2024/01/15 06:00:30;;;;;;;8.45;2.08;;;;;;;-0.14;100.00;100181.66;5081534;28;20024;-83
2024/01/15 06:02:55;;;;;;;7.15;2.10;;;;;;;-0.12;100.00;100189.34;5078643;28;20040;-83
2024/01/15 06:05:20;;;;;;;8.77;2.90;;;;;;;-0.12;100.00;100182.41;5069850;28;20055;-83
2024/01/15 06:07:46;;;;;;;11.07;2.42;;;;;;;-0.11;100.00;100173.75;5073912;28;20019;-78
2024/01/15 06:10:11;;;;;;;8.70;2.45;;;;;;;-0.12;100.00;100166.06;5103447;28;20027;-83
2024/01/15 06:12:36;;;;;;;9.10;2.67;;;;;;;-0.12;100.00;100172.09;5067668;28;20037;-83
2024/01/15 06:15:02;;;;;;;10.90;3.35;;;;;;;-0.15;100.00;100174.78;5076895;28;20362;-83
2024/01/15 06:17:27;;;;;;;13.88;3.30;;;;;;;-0.14;100.00;100168.72;5086038;28;20028;-84
2024/01/15 06:19:53;;;;;;;10.93;2.85;;;;;;;-0.13;100.00;100165.22;5078735;28;20028;-83
2024/01/15 06:22:18;;;;;;;7.70;2.80;;;;;;;-0.12;100.00;100168.66;5082851;28;20031;-83
2024/01/15 06:24:44;;;;;;;8.00;2.75;;;;;;;-0.12;100.00;100172.09;5069580;28;20016;-83
2024/01/15 06:27:09;;;;;;;6.20;2.58;;;;;;;-0.07;100.00;100167.56;5069058;28;20515;-84
2024/01/15 06:29:37;;;;;;;6.40;2.67;;;;;;;-0.09;100.00;100177.13;5069926;28;20055;-83
2024/01/15 06:32:03;;;;;;;4.88;2.40;;;;;;;-0.09;100.00;100171.94;5069862;28;20115;-83
2024/01/15 06:34:32;;;;;;;7.13;2.42;;;;;;;-0.07;100.00;100164.97;5070898;28;20028;-84
2024/01/15 06:36:57;;;;;;;5.35;2.30;;;;;;;-0.08;100.00;100177.97;5069837;28;20031;-83
2024/01/15 06:39:22;;;;;;;4.90;2.30;;;;;;;-0.13;100.00;100170.41;5081417;28;20032;-83
2024/01/15 06:41:48;;;;;;;4.70;2.30;;;;;;;-0.14;100.00;100167.88;5077689;28;20078;-79
2024/01/15 06:44:13;;;;;;;5.35;2.33;;;;;;;-0.15;100.00;100177.38;5069903;28;20082;-82
2024/01/15 06:46:43;;;;;;;4.15;2.30;;;;;;;-0.16;100.00;100183.44;5070874;28;20179;-83
2024/01/15 06:49:08;;;;;;;5.60;2.08;;;;;;;-0.20;100.00;100178.47;5070113;28;20024;-83
2024/01/15 06:51:33;;;;;;;3.28;2.17;;;;;;;-0.24;100.00;100176.91;5075428;28;20126;-82
2024/01/15 06:53:59;;;;;;;4.35;2.40;;;;;;;-0.29;100.00;100171.94;5071179;28;20120;-83
2024/01/15 06:56:24;;;;;;;4.90;2.20;;;;;;;-0.32;100.00;100170.31;5072551;28;20024;-82
2024/01/15 06:58:49;;;;;;;3.75;2.40;;;;;;;-0.34;100.00;100171.28;5072609;28;20036;-83
2024/01/15 07:01:15;;;;;;;2.58;2.28;;;;;;;-0.37;100.00;100161.91;5070613;28;20035;-82
2024/01/15 07:03:40;;;;;;;4.70;3.03;;;;;;;-0.35;100.00;100174.78;5071107;28;20119;-84
2024/01/15 07:06:06;;;;;;;3.25;2.70;;;;;;;-0.35;100.00;100172.19;5086142;28;20020;-83
2024/01/15 07:08:31;;;;;;;5.38;3.33;;;;;;;-0.35;100.00;100160.09;5079578;28;20030;-83
2024/01/15 07:10:57;;;;;;;4.82;3.00;;;;;;;-0.36;100.00;100170.50;5089478;28;20067;-83
2024/01/15 07:13:22;;;;;;;3.95;3.50;;;;;;;-0.39;100.00;100173.22;5084338;28;20038;-83
2024/01/15 07:15:48;;;;;;;3.60;3.30;;;;;;;-0.36;100.00;100180.84;5071649;28;20028;-83
2024/01/15 07:18:13;;;;;;;5.32;3.83;;;;;;;-0.39;100.00;100168.03;5073784;28;20024;-83
2024/01/15 07:20:38;;;;;;;6.97;4.15;;;;;;;-0.39;100.00;100173.22;5089256;28;20027;-83
2024/01/15 07:23:04;;;;;;;6.03;3.90;;;;;;;-0.40;100.00;100166.34;5090026;28;20024;-83
2024/01/15 07:25:32;;;;;;;4.25;3.80;;;;;;;-0.39;100.00;100179.22;5090851;28;20492;-83
2024/01/15 07:27:58;;;;;;;4.60;4.20;;;;;;;-0.39;100.00;100168.88;5090414;28;20054;-83
2024/01/15 07:30:23;;;;;;;4.70;4.20;;;;;;;-0.38;100.00;100170.56;5106014;28;20496;-83
2024/01/15 07:32:48;;;;;;;5.07;4.57;;;;;;;-0.34;100.00;100168.69;5087819;28;20570;-85
2024/01/15 07:35:17;;;;;;;6.55;4.85;;;;;;;-0.35;100.00;100179.94;5087949;28;20111;-83
2024/01/15 07:37:42;;;;;;;5.88;4.80;;;;;;;-0.38;100.00;100175.72;5089894;28;20039;-83
2024/01/15 07:40:08;;;;;;;5.65;5.15;;;;;;;-0.37;100.00;100177.41;5073339;28;20051;-83
2024/01/15 07:42:34;;;;;;;7.13;5.70;;;;;;;-0.38;100.00;100177.47;5088528;28;20024;-83
2024/01/15 07:45:00;;;;;;;7.50;6.80;;;;;;;-0.38;100.00;100167.97;5078158;28;20069;-84
2024/01/15 07:47:27;;;;;;;8.70;7.90;;;;;;;-0.36;100.00;100173.94;5085756;28;20024;-84
2024/01/15 07:49:52;;;;;;;8.77;8.00;;;;;;;-0.35;100.00;100177.34;5086529;28;20043;-82
2024/01/15 07:52:18;;;;;;;9.00;8.20;;;;;;;-0.35;100.00;100188.53;5082801;28;20599;-83
2024/01/15 07:54:44;;;;;;;10.40;8.77;;;;;;;-0.34;100.00;100186.78;5074204;28;20024;-84
2024/01/15 07:57:09;;;;;;;9.98;9.07;;;;;;;-0.35;100.00;100188.53;5087032;28;20024;-83
2024/01/15 07:59:35;;;;;;;11.32;10.20;;;;;;;-0.32;100.00;100197.91;5088462;28;20566;-83
2024/01/15 08:02:00;;;;;;;11.25;10.15;;;;;;;-0.32;100.00;100193.56;5083073;28;20111;-81
2024/01/15 08:04:25;;;;;;;11.02;10.02;;;;;;;-0.30;100.00;100196.09;5079096;28;20058;-81
2024/01/15 08:06:54;;;;;;;11.82;10.25;;;;;;;-0.30;100.00;100198.69;5087447;28;20027;-83
2024/01/15 08:09:19;;;;;;;10.15;9.25;;;;;;;-0.30;100.00;100200.44;5070960;28;20028;-81
2024/01/15 08:11:45;;;;;;;10.18;9.10;;;;;;;-0.27;100.00;100203.72;5098390;28;20058;-80
2024/01/15 08:14:11;;;;;;;9.82;8.32;;;;;;;-0.28;100.00;100199.47;5107243;28;20436;-81
2024/01/15 08:16:36;;;;;;;8.57;7.78;;;;;;;-0.26;100.00;100195.06;5102794;28;20024;-81
2024/01/15 08:19:02;;;;;;;9.60;7.75;;;;;;;-0.25;100.00;100206.25;5109644;28;20031;-81
2024/01/15 08:21:31;;;;;;;10.10;7.00;;;;;;;-0.25;100.00;100201.91;5108796;28;20468;-81
2024/01/15 08:24:02;;;;;;;7.75;6.30;;;;;;;-0.22;100.00;100204.38;5108945;28;20026;-81
2024/01/15 08:26:27;;;;;;;6.93;5.93;;;;;;;-0.24;100.00;100195.00;5108798;28;20016;-81
2024/01/15 08:28:52;;;;;;;7.10;6.38;;;;;;;-0.22;100.00;100201.78;5108325;28;20077;-81
2024/01/15 08:31:18;;;;;;;6.75;5.60;;;;;;;-0.22;100.00;100193.19;5109415;28;20023;-81
2024/01/15 08:33:43;;;;;;;6.82;5.80;;;;;;;-0.20;100.00;100205.16;5088149;28;20404;-82
2024/01/15 08:36:12;;;;;;;5.40;4.38;;;;;;;-0.20;100.00;100206.91;5105821;28;20027;-82
2024/01/15 08:38:37;;;;;;;5.55;4.43;;;;;;;-0.18;100.00;100211.13;5108987;28;20019;-81
2024/01/15 08:41:03;;;;;;;4.82;3.70;;;;;;;-0.19;100.00;100209.44;5108498;28;20034;-83
2024/01/15 08:43:28;;;;;;;4.30;3.20;;;;;;;-0.19;100.00;100212.00;5085681;28;20054;-82
2024/01/15 08:45:54;;;;;;;3.85;2.80;;;;;;;-0.20;100.00;100215.50;5105033;28;20023;-82
2024/01/15 08:48:19;;;;;;;3.20;2.70;;;;;;;-0.24;100.00;100206.19;5089030;28;20081;-83
2024/01/15 08:50:48;;;;;;;7.25;2.50;;;;;;;-0.24;100.00;100207.94;5107231;28;20102;-83
2024/01/15 08:53:13;;;;;;;5.45;2.20;;;;;;;-0.25;100.00;100207.09;5107324;28;20415;-83
2024/01/15 08:55:39;;;;;;;6.32;2.15;;;;;;;-0.21;100.00;100207.81;5089330;28;20024;-83
2024/01/15 08:58:06;;;;;;;6.70;2.10;;;;;;;-0.20;100.00;100204.31;5105838;28;20019;-83
2024/01/15 09:00:31;;;;;;;8.85;2.22;;;;;;;-0.19;100.00;100206.84;5105543;28;20073;-83
2024/01/15 09:02:56;;;;;;;6.28;2.13;;;;;;;-0.16;100.00;100211.88;5084987;28;20025;-83
2024/01/15 09:05:22;;;;;;;7.25;1.80;;;;;;;-0.14;100.00;100215.25;5105300;28;20035;-82
2024/01/15 09:07:48;;;;;;;6.28;1.85;;;;;;;-0.15;100.00;100205.81;5103017;28;20391;-82
2024/01/15 09:10:13;;;;;;;6.75;2.00;;;;;;;-0.13;100.00;100205.75;5088634;28;20463;-83
2024/01/15 09:12:39;;;;;;;5.45;1.70;;;;;;;-0.12;100.00;100212.59;5086005;28;20030;-83
2024/01/15 09:15:05;;;;;;;8.88;1.70;;;;;;;-0.13;100.00;100206.59;5081100;28;20516;-82
2024/01/15 09:17:34;;;;;;;4.55;1.60;;;;;;;-0.11;100.00;100215.13;5097930;28;20024;-82
2024/01/15 09:19:59;;;;;;;5.80;1.80;;;;;;;-0.11;100.00;100220.28;5103290;28;20030;-81
2024/01/15 09:22:24;;;;;;;8.07;1.90;;;;;;;-0.07;100.00;100226.19;5088483;28;20035;-81
2024/01/15 09:24:50;;;;;;;7.00;1.67;;;;;;;-0.08;100.00;100215.00;5086601;28;20059;-81
2024/01/15 09:27:15;;;;;;;4.97;1.90;;;;;;;-0.08;100.00;100225.34;5106945;28;20062;-81
2024/01/15 09:29:42;;;;;;;5.45;1.50;;;;;;;-0.05;100.00;100220.03;5089479;28;20043;-81
2024/01/15 09:32:08;;;;;;;5.95;1.85;;;;;;;-0.04;100.00;100211.38;5103394;28;20031;-82
2024/01/15 09:34:34;;;;;;;5.45;1.70;;;;;;;0.00;100.00;100217.31;5102539;28;20032;-82
2024/01/15 09:37:00;;;;;;;3.50;1.38;;;;;;;-0.01;100.00;100210.41;5104252;28;20110;-82
2024/01/15 09:39:26;;;;;;;6.63;1.65;;;;;;;0.01;100.00;100207.81;5102160;28;20111;-82
2024/01/15 09:41:53;;;;;;;4.70;1.40;;;;;;;0.01;100.00;100212.97;5098922;28;20015;-82
2024/01/15 09:44:19;;;;;;;9.15;2.00;;;;;;;0.02;100.00;100210.31;5087439;28;20080;-83
2024/01/15 09:46:46;;;;;;;8.23;1.95;;;;;;;0.03;100.00;100213.75;5087187;28;20118;-83
2024/01/15 09:49:12;;;;;;;10.13;1.85;;;;;;;0.04;100.00;100228.34;5084297;28;20673;-83
2024/01/15 09:51:39;;;;;;;9.25;1.98;;;;;;;0.06;100.00;100227.38;5084217;28;20511;-83
2024/01/15 09:54:05;;;;;;;6.88;2.15;;;;;;;0.09;100.00;100241.94;5104687;28;20016;-83
2024/01/15 09:56:30;;;;;;;9.38;2.25;;;;;;;0.10;100.00;100235.88;5084789;28;20685;-83
2024/01/15 09:58:57;;;;;;;7.20;2.20;;;;;;;0.09;100.00;100242.78;5080923;28;20032;-83
2024/01/15 10:01:23;;;;;;;5.95;2.10;;;;;;;0.08;100.00;100240.25;5083122;28;20109;-83
2024/01/15 10:03:48;;;;;;;3.97;2.00;;;;;;;0.06;100.00;100242.91;5100389;28;20028;-83
2024/01/15 10:06:18;;;;;;;7.80;2.30;;;;;;;0.07;100.00;100248.91;5108989;28;20031;-82
2024/01/15 10:08:48;;;;;;;5.63;2.13;;;;;;;0.11;100.00;100240.97;5082469;28;20448;-82
2024/01/15 10:11:14;;;;;;;5.55;2.30;;;;;;;0.21;100.00;100246.59;5082417;28;20050;-82
2024/01/15 10:13:40;;;;;;;7.85;2.35;;;;;;;0.23;100.00;100250.81;5088310;28;20027;-83
2024/01/15 10:16:05;;;;;;;7.47;2.45;;;;;;;0.28;100.00;100242.84;5105685;28;20076;-82
2024/01/15 10:18:31;;;;;;;8.27;2.65;;;;;;;0.29;100.00;100229.00;5104336;28;20394;-83
2024/01/15 10:20:57;;;;;;;4.85;2.60;;;;;;;0.31;100.00;100227.19;5104919;28;20034;-83
2024/01/15 10:23:23;;;;;;;8.73;3.30;;;;;;;0.34;100.00;100221.91;5110667;28;20023;-82
2024/01/15 10:25:49;;;;;;;6.28;2.83;;;;;;;0.38;100.00;100228.63;5091245;28;20047;-82
2024/01/15 10:28:14;;;;;;;10.50;3.10;;;;;;;0.42;100.00;100225.03;5106723;28;20479;-82
2024/01/15 10:30:40;;;;;;;10.00;3.13;;;;;;;0.48;100.00;100222.19;5109836;28;20647;-83
2024/01/15 10:33:05;;;;;;;7.80;3.60;;;;;;;0.55;100.00;100227.94;5106237;28;20035;-83
2024/01/15 10:35:33;;;;;;;6.10;2.90;;;;;;;0.62;100.00;100222.41;5104987;28;20155;-82
2024/01/15 10:38:00;;;;;;;7.57;3.08;;;;;;;0.65;100.00;100225.78;5089551;28;20135;-82
2024/01/15 10:40:25;;;;;;;7.65;2.95;;;;;;;0.67;100.00;100234.31;5108423;28;20430;-82
2024/01/15 10:42:54;;;;;;;4.43;2.80;;;;;;;0.60;100.00;100223.38;5102257;28;20077;-82
2024/01/15 10:45:19;;;;;;;6.30;2.83;;;;;;;0.59;100.00;100225.13;5088174;28;20034;-83
2024/01/15 10:47:45;;;;;;;8.48;3.50;;;;;;;0.62;100.00;100227.59;5108770;28;20023;-83
2024/01/15 10:50:11;;;;;;;8.60;3.22;;;;;;;0.66;100.00;100237.81;5111122;28;20040;-82
2024/01/15 10:52:38;;;;;;;7.47;2.80;;;;;;;0.69;100.00;100232.50;5111374;28;20019;-82
2024/01/15 10:55:05;;;;;;;6.15;2.92;;;;;;;0.72;100.00;100219.41;5106220;28;20586;-83
2024/01/15 10:57:30;;;;;;;7.35;2.60;;;;;;;0.74;100.00;100226.22;5101990;28;20020;-84
2024/01/15 10:59:56;;;;;;;6.78;3.03;;;;;;;0.73;100.00;100229.72;5110058;28;20034;-84
2024/01/15 11:02:22;;;;;;;7.75;2.28;;;;;;;0.74;100.00;100227.97;5110481;28;20027;-83
2024/01/15 11:04:50;;;;;;;6.72;2.30;;;;;;;0.70;100.00;100222.06;5107322;28;20028;-83
2024/01/15 11:07:15;;;;;;;8.07;2.25;;;;;;;0.66;100.00;100222.28;5110146;27;20030;-83
2024/01/15 11:09:41;;;;;;;7.60;2.40;;;;;;;0.65;100.00;100225.78;5095821;28;20028;-83